ENDR

Draugen Airport

Norway
METAR ENDR 231550Z AUTO 30032KT 07/00 Q0997
Observed Flight Rules
Oct-23 @ 15:50 UTC (19 minutes ago)
Wind
300° at 32 knots
Temperatures Readings
Current 7°C / 45°F
Dewpoint 0°C / 32°F
Humidity 61%
Altimeter 29.44" Hg
Pressure 997 hPa
Elevation 50
METAR ENDR 231550Z AUTO 30032KT 07/00 Q0997
Observed Flight Rules
Oct-23 @ 15:50 UTC
(19 minutes ago)
Wind
300° at 32 knots
Temperature Dewpoint
7°C / 45°F 0°C / 32°F
Humidity Altimeter Pressure
61% 29.44" Hg 997 hPa